createdAt,value
2023-05-18T04:01:32.592Z,13.96
2023-05-18T04:04:35.504Z,13.96
2023-05-18T04:07:43.748Z,13.52
2023-05-18T04:10:46.537Z,13.42
2023-05-18T04:13:49.796Z,13.44
2023-05-18T04:16:52.835Z,13.48
2023-05-18T04:19:55.101Z,13.54
2023-05-18T04:22:57.556Z,13.59
2023-05-18T04:25:59.974Z,13.76
2023-05-18T04:29:03.323Z,13.76
2023-05-18T04:32:10.589Z,13.63
2023-05-18T04:35:13.699Z,13.70
2023-05-18T04:38:16.653Z,13.72
2023-05-18T04:41:22.821Z,13.72
2023-05-18T04:44:27.509Z,13.72
2023-05-18T04:47:30.502Z,13.77
2023-05-18T04:50:32.631Z,13.74
2023-05-18T04:53:35.146Z,13.65
2023-05-18T04:56:37.356Z,13.67
2023-05-18T04:59:47.311Z,13.68
2023-05-18T05:02:49.823Z,13.67
2023-05-18T05:05:52.436Z,13.73
2023-05-18T05:08:54.630Z,13.69
2023-05-18T05:11:57.188Z,13.69
2023-05-18T05:14:59.663Z,13.74
2023-05-18T05:18:02.294Z,13.81
2023-05-18T05:21:06.433Z,13.83
2023-05-18T05:24:09.705Z,13.88
2023-05-18T05:27:11.968Z,13.88
2023-05-18T05:30:14.503Z,13.94
2023-05-18T05:33:17.944Z,13.94
2023-05-18T05:36:20.689Z,13.93
2023-05-18T05:39:23.140Z,13.87
2023-05-18T05:42:25.853Z,13.86
2023-05-18T05:45:28.946Z,13.92
2023-05-18T05:48:31.895Z,13.92
2023-05-18T05:51:34.254Z,14.00
2023-05-18T05:54:37.180Z,13.95
2023-05-18T05:57:42.679Z,13.95
2023-05-18T06:00:46.674Z,13.95
2023-05-18T06:03:49.917Z,13.96
2023-05-18T06:06:53.134Z,13.87
2023-05-18T06:09:56.645Z,13.79
2023-05-18T06:12:59.010Z,13.81
2023-05-18T06:16:01.653Z,13.87
2023-05-18T06:19:04.452Z,13.73
2023-05-18T06:22:06.980Z,13.81
2023-05-18T06:25:10.808Z,13.88
2023-05-18T06:28:13.456Z,13.82
2023-05-18T06:31:17.173Z,13.82
2023-05-18T06:34:20.037Z,13.87
2023-05-18T06:37:22.386Z,13.84
2023-05-18T06:40:24.906Z,13.80
2023-05-18T06:43:28.336Z,13.75
2023-05-18T06:46:31.726Z,13.83
2023-05-18T06:49:34.903Z,13.85
2023-05-18T06:52:38.138Z,13.72
2023-05-18T06:55:40.587Z,13.68
2023-05-18T06:58:43.268Z,13.71
2023-05-18T07:01:45.720Z,13.79
2023-05-18T07:04:49.991Z,13.75
2023-05-18T07:07:52.425Z,13.70
2023-05-18T07:10:57.864Z,13.66
2023-05-18T07:14:00.402Z,13.71
2023-05-18T07:17:03.982Z,13.67
2023-05-18T07:20:07.340Z,13.86
2023-05-18T07:23:09.813Z,13.87
2023-05-18T07:26:12.085Z,13.63
2023-05-18T07:29:14.920Z,13.64
2023-05-18T07:32:17.101Z,13.75
2023-05-18T07:35:20.335Z,13.71
2023-05-18T07:38:22.548Z,13.61
2023-05-18T07:41:25.048Z,13.65
2023-05-18T07:44:27.295Z,13.78
2023-05-18T07:47:29.751Z,13.68
2023-05-18T07:50:32.037Z,13.75
2023-05-18T07:53:34.822Z,13.78
2023-05-18T07:56:36.972Z,13.79
2023-05-18T07:59:39.416Z,13.86
2023-05-18T08:02:43.074Z,14.05
2023-05-18T08:05:45.890Z,14.22
2023-05-18T08:08:48.252Z,14.23
2023-05-18T08:11:51.606Z,14.17
2023-05-18T08:14:53.773Z,14.00
2023-05-18T08:17:57.192Z,14.12
2023-05-18T08:21:00.400Z,14.07
2023-05-18T08:24:03.966Z,13.95
2023-05-18T08:27:08.433Z,14.05
2023-05-18T08:30:11.554Z,13.95
2023-05-18T08:33:13.807Z,13.97
2023-05-18T08:36:17.156Z,14.05
2023-05-18T08:39:19.535Z,13.89
2023-05-18T08:42:50.006Z,13.96
2023-05-18T08:46:06.541Z,13.83
2023-05-18T08:49:10.698Z,13.80
2023-05-18T08:52:18.671Z,14.07
2023-05-18T08:55:23.344Z,13.97
2023-05-18T08:58:38.103Z,14.12
2023-05-18T09:01:40.854Z,14.18
2023-05-18T09:04:44.880Z,14.12
2023-05-18T09:07:48.196Z,14.19
2023-05-18T09:10:51.817Z,14.42
2023-05-18T09:13:55.548Z,14.55
2023-05-18T09:16:57.778Z,14.39
2023-05-18T09:20:00.355Z,14.24
2023-05-18T09:23:02.632Z,14.34
2023-05-18T09:26:05.290Z,14.49
2023-05-18T09:29:18.472Z,14.52
2023-05-18T09:32:21.988Z,14.55
2023-05-18T09:35:25.310Z,14.61
2023-05-18T09:38:28.267Z,14.52
2023-05-18T09:41:30.693Z,14.46
2023-05-18T09:44:36.715Z,14.78
2023-05-18T09:47:38.964Z,14.66
2023-05-18T09:50:43.666Z,14.63
2023-05-18T09:53:56.771Z,14.65
2023-05-18T09:57:10.401Z,14.65
2023-05-18T10:00:19.491Z,14.65
2023-05-18T10:03:24.934Z,14.81
2023-05-18T10:06:27.651Z,14.79
2023-05-18T10:09:30.083Z,14.86
2023-05-18T10:12:32.569Z,14.90
2023-05-18T10:15:35.764Z,15.03
2023-05-18T10:18:38.871Z,15.04
2023-05-18T10:21:42.426Z,14.99
2023-05-18T10:24:50.075Z,14.95
2023-05-18T10:27:56.943Z,14.89
2023-05-18T10:31:00.583Z,14.93
2023-05-18T10:34:06.029Z,14.96
2023-05-18T10:37:11.762Z,14.93
2023-05-18T10:40:18.344Z,14.97
2023-05-18T10:43:24.204Z,15.08
2023-05-18T10:46:27.273Z,14.95
2023-05-18T10:49:31.645Z,14.93
2023-05-18T10:52:37.393Z,15.05
2023-05-18T10:55:39.789Z,15.02
2023-05-18T10:58:43.961Z,15.06
2023-05-18T11:01:48.635Z,15.15
2023-05-18T11:04:54.233Z,15.33
2023-05-18T11:08:01.553Z,15.19
2023-05-18T11:11:07.368Z,15.26
2023-05-18T11:14:09.526Z,15.29
2023-05-18T11:17:22.557Z,15.32
2023-05-18T11:20:25.844Z,15.31
2023-05-18T11:23:34.258Z,15.27
2023-05-18T11:26:51.094Z,15.26
2023-05-18T11:30:07.481Z,15.32
2023-05-18T11:33:32.478Z,15.33
2023-05-18T11:36:44.782Z,15.33
2023-05-18T11:40:00.169Z,15.26
2023-05-18T11:43:04.552Z,15.22
2023-05-18T11:46:18.399Z,15.21
2023-05-18T11:49:23.663Z,15.31
2023-05-18T11:52:25.893Z,15.31
2023-05-18T11:55:41.014Z,15.25
2023-05-18T11:58:43.143Z,15.36
2023-05-18T12:01:45.863Z,15.23
2023-05-18T12:04:51.744Z,15.17
2023-05-18T12:07:54.571Z,15.16
2023-05-18T12:10:58.288Z,15.24
2023-05-18T12:14:01.447Z,15.24
2023-05-18T12:17:04.924Z,15.28
2023-05-18T12:20:12.267Z,15.30
2023-05-18T12:23:15.812Z,15.36
2023-05-18T12:26:20.495Z,15.28
2023-05-18T12:29:23.038Z,15.32
2023-05-18T12:32:25.558Z,15.38
2023-05-18T12:35:38.426Z,15.35
2023-05-18T12:38:41.157Z,15.43
2023-05-18T12:41:43.895Z,15.62
2023-05-18T12:44:46.203Z,15.56
2023-05-18T12:47:54.203Z,15.62
2023-05-18T12:50:56.612Z,15.55
2023-05-18T12:53:59.391Z,15.54
2023-05-18T12:57:06.192Z,15.48
2023-05-18T13:00:12.219Z,15.45
2023-05-18T13:03:18.382Z,15.55
2023-05-18T13:06:20.889Z,15.51
2023-05-18T13:09:23.111Z,15.45
2023-05-18T13:12:44.640Z,15.50
2023-05-18T13:15:46.751Z,15.60
2023-05-18T13:18:55.919Z,15.71
2023-05-18T13:21:58.449Z,15.72
2023-05-18T13:25:00.977Z,15.73
2023-05-18T13:28:04.272Z,15.70
2023-05-18T13:31:06.912Z,15.66
2023-05-18T13:34:09.165Z,15.63
2023-05-18T13:37:12.219Z,15.62
2023-05-18T13:40:16.103Z,15.59
2023-05-18T13:43:18.552Z,15.58
2023-05-18T13:46:20.949Z,15.50
2023-05-18T13:49:23.579Z,15.62
2023-05-18T13:52:26.025Z,15.66
2023-05-18T13:55:28.609Z,15.61
2023-05-18T13:58:31.782Z,15.58
2023-05-18T14:01:34.447Z,15.58
2023-05-18T14:04:36.932Z,15.63
2023-05-18T14:07:41.564Z,15.67
2023-05-18T14:10:44.128Z,15.73
2023-05-18T14:13:46.347Z,15.82
2023-05-18T14:16:48.951Z,15.76
2023-05-18T14:19:51.587Z,15.82
2023-05-18T14:22:54.266Z,15.72
2023-05-18T14:25:56.715Z,15.70
2023-05-18T14:28:59.324Z,15.67
2023-05-18T14:32:01.485Z,15.60
2023-05-18T14:35:04.267Z,15.71
2023-05-18T14:38:06.394Z,15.75
2023-05-18T14:41:09.357Z,15.83
2023-05-18T14:44:13.457Z,15.85
2023-05-18T14:47:17.094Z,15.88
2023-05-18T14:50:19.245Z,15.92
2023-05-18T14:53:21.647Z,15.98
2023-05-18T14:56:23.935Z,15.82
2023-05-18T14:59:26.536Z,15.79
2023-05-18T15:02:28.820Z,15.79
2023-05-18T15:05:31.899Z,15.72
2023-05-18T15:08:34.026Z,15.85
2023-05-18T15:11:36.491Z,15.76
2023-05-18T15:14:38.659Z,15.71
2023-05-18T15:17:41.333Z,15.74
2023-05-18T15:20:43.669Z,15.75
2023-05-18T15:23:46.118Z,15.63
2023-05-18T15:26:48.556Z,15.64
2023-05-18T15:29:50.946Z,15.76
